Impacts TAF Board
For situational awareness. Not to be used for flight planning purposes.
IDs:

KTCC - Tucumcari Muni, NM, US

Issued at 1738 UTC 02 Aug 2021
Updated at 2229 UTC 02 Aug 2021
Potential Impact None Slight Moderate High
Time2153Z 02/23Z 03/00Z 03/01Z 03/02Z 03/03Z 03/04Z 03/05Z 03/06Z 03/07Z 03/08Z 03/09Z 03/10Z 03/11Z>>
Type OBS PRVL PRVL PRVL PRVL PRVL PRVL PRVL PRVL PRVL PRVL PRVL PRVL PRVL
VIS 10 >6 >6 >6 >6 >6 >6 >6 >6 >6 >6 >6 >6 >6
CIG -- -- -- -- -- -- -- -- -- -- -- 90 90 90
Cover CLR FEW FEW FEW FEW FEW FEW FEW FEW FEW FEW BKN BKN BKN
FltCat VFR VFR VFR VFR VFR VFR VFR VFR VFR VFR VFR VFR VFR VFR
WX -- -- -- -- -- -- -- -- -- -- -- -- -- --
WDir VRB 160 160 160 190 190 190 190 190 190 190 220 220 220
WSpd 3 5 5 5 5 5 5 5 5 5 5 5 5 5
WGst -- -- -- -- -- -- -- -- -- -- -- -- -- --
Raw TAF
KTCC 021738Z 0218/0318 16005KT P6SM FEW050
  FM030200 19005KT P6SM FEW100
  FM030900 22005KT P6SM BKN090


Raw METAR
KTCC 022153Z AUTO VRB03KT 10SM CLR 29/08 A3020 RMK AO2 SLP167 T02940083
KTCC 022053Z AUTO 12008G15KT 10SM CLR 29/09 A3021 RMK AO2 SLP173 T02890094 58024
KTCC 021953Z AUTO 10SM FEW060 28/11 A3024 RMK AO2 SLP182 T02830106

METAR Board
Radar Display
Forecast Discussion
For situational awareness. Not to be used for flight planning purposes.